sensor_id;sensor_type;location;lat;lon;timestamp;P1;durP1;ratioP1;P2;durP2;ratioP2
6249;SDS011;3158;52.148;11.568;2022-12-19T00:00:28;11.27;;;5.67;;
6249;SDS011;3158;52.148;11.568;2022-12-19T00:05:29;4.80;;;4.30;;
6249;SDS011;3158;52.148;11.568;2022-12-19T00:10:30;7.73;;;5.20;;
6249;SDS011;3158;52.148;11.568;2022-12-19T00:15:32;15.90;;;6.80;;
6249;SDS011;3158;52.148;11.568;2022-12-19T00:20:33;14.33;;;6.43;;
6249;SDS011;3158;52.148;11.568;2022-12-19T00:25:34;11.33;;;5.03;;
6249;SDS011;3158;52.148;11.568;2022-12-19T00:30:35;21.83;;;5.83;;
6249;SDS011;3158;52.148;11.568;2022-12-19T00:35:36;9.17;;;5.43;;
6249;SDS011;3158;52.148;11.568;2022-12-19T00:40:38;11.90;;;6.40;;
6249;SDS011;3158;52.148;11.568;2022-12-19T00:45:40;8.73;;;5.10;;
6249;SDS011;3158;52.148;11.568;2022-12-19T00:50:41;6.23;;;4.10;;
6249;SDS011;3158;52.148;11.568;2022-12-19T00:55:43;5.23;;;4.47;;
6249;SDS011;3158;52.148;11.568;2022-12-19T01:00:44;10.87;;;5.70;;
6249;SDS011;3158;52.148;11.568;2022-12-19T01:05:45;14.23;;;5.10;;
6249;SDS011;3158;52.148;11.568;2022-12-19T01:10:47;10.97;;;5.40;;
6249;SDS011;3158;52.148;11.568;2022-12-19T01:15:48;7.83;;;3.93;;
6249;SDS011;3158;52.148;11.568;2022-12-19T01:20:49;7.50;;;4.87;;
6249;SDS011;3158;52.148;11.568;2022-12-19T01:25:51;7.50;;;4.17;;
6249;SDS011;3158;52.148;11.568;2022-12-19T01:30:55;9.87;;;4.63;;
6249;SDS011;3158;52.148;11.568;2022-12-19T01:35:56;8.17;;;4.87;;
6249;SDS011;3158;52.148;11.568;2022-12-19T01:41:01;2.57;;;2.37;;
6249;SDS011;3158;52.148;11.568;2022-12-19T01:46:03;8.73;;;4.70;;
6249;SDS011;3158;52.148;11.568;2022-12-19T01:51:13;10.07;;;3.93;;
6249;SDS011;3158;52.148;11.568;2022-12-19T01:56:18;2.53;;;2.43;;
6249;SDS011;3158;52.148;11.568;2022-12-19T02:01:21;7.97;;;4.93;;
6249;SDS011;3158;52.148;11.568;2022-12-19T02:06:24;10.07;;;4.87;;
6249;SDS011;3158;52.148;11.568;2022-12-19T02:11:25;13.77;;;5.33;;
6249;SDS011;3158;52.148;11.568;2022-12-19T02:16:45;3.87;;;3.33;;
6249;SDS011;3158;52.148;11.568;2022-12-19T02:37:17;5.97;;;3.33;;
6249;SDS011;3158;52.148;11.568;2022-12-19T02:42:27;9.90;;;4.50;;
6249;SDS011;3158;52.148;11.568;2022-12-19T02:47:30;13.00;;;4.40;;
6249;SDS011;3158;52.148;11.568;2022-12-19T03:13:00;10.73;;;4.10;;
6249;SDS011;3158;52.148;11.568;2022-12-19T03:18:02;8.63;;;3.77;;
6249;SDS011;3158;52.148;11.568;2022-12-19T03:23:03;6.13;;;3.80;;
6249;SDS011;3158;52.148;11.568;2022-12-19T03:28:06;7.03;;;3.80;;
6249;SDS011;3158;52.148;11.568;2022-12-19T03:33:09;8.93;;;3.73;;
6249;SDS011;3158;52.148;11.568;2022-12-19T03:38:11;7.53;;;4.03;;
6249;SDS011;3158;52.148;11.568;2022-12-19T03:43:13;9.82;;;5.10;;
6249;SDS011;3158;52.148;11.568;2022-12-19T03:48:27;2.33;;;2.17;;
6249;SDS011;3158;52.148;11.568;2022-12-19T03:58:33;4.03;;;1.70;;
6249;SDS011;3158;52.148;11.568;2022-12-19T04:03:35;6.30;;;3.97;;
6249;SDS011;3158;52.148;11.568;2022-12-19T04:08:36;6.67;;;4.20;;
6249;SDS011;3158;52.148;11.568;2022-12-19T04:13:43;4.57;;;2.45;;
6249;SDS011;3158;52.148;11.568;2022-12-19T04:18:50;2.97;;;2.70;;
6249;SDS011;3158;52.148;11.568;2022-12-19T04:23:55;6.00;;;3.43;;
6249;SDS011;3158;52.148;11.568;2022-12-19T04:28:59;10.87;;;3.03;;
6249;SDS011;3158;52.148;11.568;2022-12-19T04:34:01;7.13;;;4.17;;
6249;SDS011;3158;52.148;11.568;2022-12-19T04:39:02;6.53;;;4.07;;
6249;SDS011;3158;52.148;11.568;2022-12-19T04:44:03;2.58;;;1.45;;
6249;SDS011;3158;52.148;11.568;2022-12-19T04:49:05;4.70;;;3.03;;
6249;SDS011;3158;52.148;11.568;2022-12-19T04:54:06;4.82;;;2.95;;
6249;SDS011;3158;52.148;11.568;2022-12-19T04:59:07;9.73;;;2.63;;
6249;SDS011;3158;52.148;11.568;2022-12-19T05:04:08;3.60;;;2.45;;
6249;SDS011;3158;52.148;11.568;2022-12-19T05:09:10;7.53;;;3.17;;
6249;SDS011;3158;52.148;11.568;2022-12-19T05:14:11;5.07;;;2.33;;
6249;SDS011;3158;52.148;11.568;2022-12-19T05:19:12;6.88;;;3.20;;
6249;SDS011;3158;52.148;11.568;2022-12-19T05:24:13;7.15;;;3.75;;
6249;SDS011;3158;52.148;11.568;2022-12-19T05:29:15;3.28;;;2.75;;
6249;SDS011;3158;52.148;11.568;2022-12-19T05:34:16;5.70;;;3.58;;
6249;SDS011;3158;52.148;11.568;2022-12-19T05:39:17;6.30;;;2.90;;
6249;SDS011;3158;52.148;11.568;2022-12-19T05:44:18;9.85;;;3.65;;
6249;SDS011;3158;52.148;11.568;2022-12-19T05:49:19;3.97;;;1.83;;
6249;SDS011;3158;52.148;11.568;2022-12-19T05:54:20;6.28;;;2.60;;
6249;SDS011;3158;52.148;11.568;2022-12-19T05:59:22;4.32;;;2.95;;
6249;SDS011;3158;52.148;11.568;2022-12-19T06:04:23;9.85;;;2.17;;
6249;SDS011;3158;52.148;11.568;2022-12-19T06:09:24;6.85;;;3.42;;
6249;SDS011;3158;52.148;11.568;2022-12-19T06:14:25;5.90;;;2.97;;
6249;SDS011;3158;52.148;11.568;2022-12-19T06:19:26;4.70;;;3.88;;
6249;SDS011;3158;52.148;11.568;2022-12-19T06:24:29;6.43;;;3.78;;
6249;SDS011;3158;52.148;11.568;2022-12-19T06:29:30;2.88;;;2.70;;
6249;SDS011;3158;52.148;11.568;2022-12-19T06:34:31;7.93;;;3.97;;
6249;SDS011;3158;52.148;11.568;2022-12-19T06:39:32;9.33;;;4.60;;
6249;SDS011;3158;52.148;11.568;2022-12-19T06:44:33;10.02;;;4.70;;
6249;SDS011;3158;52.148;11.568;2022-12-19T06:49:34;8.80;;;4.55;;
6249;SDS011;3158;52.148;11.568;2022-12-19T06:54:35;9.75;;;3.40;;
6249;SDS011;3158;52.148;11.568;2022-12-19T06:59:36;5.90;;;3.42;;
6249;SDS011;3158;52.148;11.568;2022-12-19T07:04:39;4.13;;;3.53;;
6249;SDS011;3158;52.148;11.568;2022-12-19T07:09:41;6.47;;;4.13;;
6249;SDS011;3158;52.148;11.568;2022-12-19T07:14:42;4.68;;;3.05;;
6249;SDS011;3158;52.148;11.568;2022-12-19T07:19:43;6.40;;;4.45;;
6249;SDS011;3158;52.148;11.568;2022-12-19T07:24:44;13.47;;;5.33;;
6249;SDS011;3158;52.148;11.568;2022-12-19T07:29:46;6.85;;;4.50;;
6249;SDS011;3158;52.148;11.568;2022-12-19T07:34:47;6.20;;;4.15;;
6249;SDS011;3158;52.148;11.568;2022-12-19T07:39:48;7.35;;;4.13;;
6249;SDS011;3158;52.148;11.568;2022-12-19T07:44:49;7.10;;;4.77;;
6249;SDS011;3158;52.148;11.568;2022-12-19T07:49:50;9.27;;;4.80;;
6249;SDS011;3158;52.148;11.568;2022-12-19T07:54:51;8.10;;;4.20;;
6249;SDS011;3158;52.148;11.568;2022-12-19T07:59:53;7.05;;;4.57;;
6249;SDS011;3158;52.148;11.568;2022-12-19T08:04:54;5.88;;;3.63;;
6249;SDS011;3158;52.148;11.568;2022-12-19T08:09:55;10.18;;;4.47;;
6249;SDS011;3158;52.148;11.568;2022-12-19T08:14:56;5.13;;;4.32;;
6249;SDS011;3158;52.148;11.568;2022-12-19T08:19:57;7.43;;;4.80;;
6249;SDS011;3158;52.148;11.568;2022-12-19T08:24:58;14.13;;;5.05;;
6249;SDS011;3158;52.148;11.568;2022-12-19T08:29:59;4.03;;;2.88;;
6249;SDS011;3158;52.148;11.568;2022-12-19T08:35:00;9.52;;;5.03;;
6249;SDS011;3158;52.148;11.568;2022-12-19T08:40:01;6.10;;;4.32;;
6249;SDS011;3158;52.148;11.568;2022-12-19T08:45:02;5.45;;;4.93;;
6249;SDS011;3158;52.148;11.568;2022-12-19T08:50:04;7.40;;;3.35;;
6249;SDS011;3158;52.148;11.568;2022-12-19T08:55:06;10.05;;;5.55;;
6249;SDS011;3158;52.148;11.568;2022-12-19T09:00:07;6.97;;;4.65;;
6249;SDS011;3158;52.148;11.568;2022-12-19T09:05:08;8.73;;;5.10;;
6249;SDS011;3158;52.148;11.568;2022-12-19T09:10:09;9.43;;;5.60;;
6249;SDS011;3158;52.148;11.568;2022-12-19T09:15:10;9.00;;;5.70;;
6249;SDS011;3158;52.148;11.568;2022-12-19T09:20:11;11.45;;;5.18;;
6249;SDS011;3158;52.148;11.568;2022-12-19T09:25:13;8.20;;;4.65;;
6249;SDS011;3158;52.148;11.568;2022-12-19T09:30:14;10.13;;;4.95;;
6249;SDS011;3158;52.148;11.568;2022-12-19T09:35:15;9.88;;;5.25;;
6249;SDS011;3158;52.148;11.568;2022-12-19T09:40:16;7.50;;;4.88;;
6249;SDS011;3158;52.148;11.568;2022-12-19T09:45:36;9.15;;;4.80;;
6249;SDS011;3158;52.148;11.568;2022-12-19T09:50:45;11.07;;;6.15;;
6249;SDS011;3158;52.148;11.568;2022-12-19T09:55:50;8.60;;;4.82;;
6249;SDS011;3158;52.148;11.568;2022-12-19T10:00:53;8.43;;;3.13;;
6249;SDS011;3158;52.148;11.568;2022-12-19T10:31:26;8.60;;;5.57;;
6249;SDS011;3158;52.148;11.568;2022-12-19T10:36:30;14.55;;;6.97;;
6249;SDS011;3158;52.148;11.568;2022-12-19T10:41:32;10.25;;;5.53;;
6249;SDS011;3158;52.148;11.568;2022-12-19T10:46:41;11.90;;;5.70;;
6249;SDS011;3158;52.148;11.568;2022-12-19T10:51:52;11.50;;;6.15;;
6249;SDS011;3158;52.148;11.568;2022-12-19T10:57:11;11.88;;;5.35;;
6249;SDS011;3158;52.148;11.568;2022-12-19T11:02:25;11.68;;;6.68;;
6249;SDS011;3158;52.148;11.568;2022-12-19T11:07:29;11.68;;;6.47;;
6249;SDS011;3158;52.148;11.568;2022-12-19T11:12:31;14.23;;;7.40;;
6249;SDS011;3158;52.148;11.568;2022-12-19T11:22:33;12.15;;;5.93;;
6249;SDS011;3158;52.148;11.568;2022-12-19T11:32:37;13.75;;;6.50;;
6249;SDS011;3158;52.148;11.568;2022-12-19T11:37:58;11.57;;;5.88;;
6249;SDS011;3158;52.148;11.568;2022-12-19T11:43:22;17.45;;;8.02;;
6249;SDS011;3158;52.148;11.568;2022-12-19T11:53:33;11.02;;;6.38;;
6249;SDS011;3158;52.148;11.568;2022-12-19T11:58:35;10.27;;;6.72;;
6249;SDS011;3158;52.148;11.568;2022-12-19T12:14:04;11.25;;;4.78;;
6249;SDS011;3158;52.148;11.568;2022-12-19T12:19:22;10.20;;;6.22;;
6249;SDS011;3158;52.148;11.568;2022-12-19T12:24:32;14.20;;;8.15;;
6249;SDS011;3158;52.148;11.568;2022-12-19T12:45:34;15.65;;;8.13;;
6249;SDS011;3158;52.148;11.568;2022-12-19T12:50:35;9.95;;;6.20;;
6249;SDS011;3158;52.148;11.568;2022-12-19T12:55:39;15.45;;;7.13;;
6249;SDS011;3158;52.148;11.568;2022-12-19T13:00:41;8.80;;;5.75;;
6249;SDS011;3158;52.148;11.568;2022-12-19T13:06:04;11.52;;;7.22;;
6249;SDS011;3158;52.148;11.568;2022-12-19T13:32:19;15.43;;;8.35;;
6249;SDS011;3158;52.148;11.568;2022-12-19T13:37:23;17.23;;;7.82;;
6249;SDS011;3158;52.148;11.568;2022-12-19T13:42:26;16.60;;;7.47;;
6249;SDS011;3158;52.148;11.568;2022-12-19T13:47:46;18.42;;;8.65;;
6249;SDS011;3158;52.148;11.568;2022-12-19T13:52:48;16.60;;;8.73;;
6249;SDS011;3158;52.148;11.568;2022-12-19T13:57:52;11.48;;;7.00;;
6249;SDS011;3158;52.148;11.568;2022-12-19T14:02:54;10.60;;;6.65;;
6249;SDS011;3158;52.148;11.568;2022-12-19T14:07:55;12.27;;;7.68;;
6249;SDS011;3158;52.148;11.568;2022-12-19T14:12:57;11.05;;;6.65;;
6249;SDS011;3158;52.148;11.568;2022-12-19T14:18:18;17.95;;;8.00;;
6249;SDS011;3158;52.148;11.568;2022-12-19T14:23:20;15.77;;;7.25;;
6249;SDS011;3158;52.148;11.568;2022-12-19T14:28:23;13.18;;;7.68;;
6249;SDS011;3158;52.148;11.568;2022-12-19T14:33:36;15.00;;;7.70;;
6249;SDS011;3158;52.148;11.568;2022-12-19T14:38:38;16.63;;;7.82;;
6249;SDS011;3158;52.148;11.568;2022-12-19T14:43:40;14.55;;;7.93;;
6249;SDS011;3158;52.148;11.568;2022-12-19T14:48:54;18.75;;;8.55;;
6249;SDS011;3158;52.148;11.568;2022-12-19T14:59:03;13.70;;;7.40;;
6249;SDS011;3158;52.148;11.568;2022-12-19T15:04:06;18.13;;;9.02;;
6249;SDS011;3158;52.148;11.568;2022-12-19T15:09:10;13.95;;;7.10;;
6249;SDS011;3158;52.148;11.568;2022-12-19T15:14:13;19.10;;;8.98;;
6249;SDS011;3158;52.148;11.568;2022-12-19T15:19:14;14.82;;;8.30;;
6249;SDS011;3158;52.148;11.568;2022-12-19T15:24:15;13.45;;;8.10;;
6249;SDS011;3158;52.148;11.568;2022-12-19T15:29:16;16.80;;;8.38;;
6249;SDS011;3158;52.148;11.568;2022-12-19T15:34:25;15.77;;;9.35;;
6249;SDS011;3158;52.148;11.568;2022-12-19T15:39:26;15.23;;;8.88;;
6249;SDS011;3158;52.148;11.568;2022-12-19T15:44:33;14.50;;;8.40;;
6249;SDS011;3158;52.148;11.568;2022-12-19T15:49:34;13.05;;;7.88;;
6249;SDS011;3158;52.148;11.568;2022-12-19T15:54:35;15.15;;;8.43;;
6249;SDS011;3158;52.148;11.568;2022-12-19T15:59:38;15.13;;;9.20;;
6249;SDS011;3158;52.148;11.568;2022-12-19T16:04:44;14.63;;;8.43;;
6249;SDS011;3158;52.148;11.568;2022-12-19T16:09:45;14.80;;;8.07;;
6249;SDS011;3158;52.148;11.568;2022-12-19T16:14:48;13.20;;;8.63;;
6249;SDS011;3158;52.148;11.568;2022-12-19T16:19:52;17.60;;;9.90;;
6249;SDS011;3158;52.148;11.568;2022-12-19T16:24:54;17.90;;;8.23;;
6249;SDS011;3158;52.148;11.568;2022-12-19T16:29:57;16.25;;;9.07;;
6249;SDS011;3158;52.148;11.568;2022-12-19T16:34:58;16.02;;;7.82;;
6249;SDS011;3158;52.148;11.568;2022-12-19T16:39:59;14.05;;;7.95;;
6249;SDS011;3158;52.148;11.568;2022-12-19T16:45:01;13.20;;;8.07;;
6249;SDS011;3158;52.148;11.568;2022-12-19T16:50:09;13.45;;;7.43;;
6249;SDS011;3158;52.148;11.568;2022-12-19T16:55:11;10.38;;;6.85;;
6249;SDS011;3158;52.148;11.568;2022-12-19T17:00:13;18.92;;;9.02;;
6249;SDS011;3158;52.148;11.568;2022-12-19T17:05:22;15.43;;;8.23;;
6249;SDS011;3158;52.148;11.568;2022-12-19T17:10:27;11.95;;;7.28;;
6249;SDS011;3158;52.148;11.568;2022-12-19T17:15:30;14.43;;;7.90;;
6249;SDS011;3158;52.148;11.568;2022-12-19T17:20:34;18.45;;;8.98;;
6249;SDS011;3158;52.148;11.568;2022-12-19T17:25:36;13.57;;;6.75;;
6249;SDS011;3158;52.148;11.568;2022-12-19T17:30:38;19.20;;;8.25;;
6249;SDS011;3158;52.148;11.568;2022-12-19T17:35:39;18.25;;;9.25;;
6249;SDS011;3158;52.148;11.568;2022-12-19T17:40:41;13.73;;;8.02;;
6249;SDS011;3158;52.148;11.568;2022-12-19T17:45:42;13.95;;;8.52;;
6249;SDS011;3158;52.148;11.568;2022-12-19T17:50:43;17.42;;;8.43;;
6249;SDS011;3158;52.148;11.568;2022-12-19T17:55:45;12.63;;;7.22;;
6249;SDS011;3158;52.148;11.568;2022-12-19T18:00:46;15.57;;;7.30;;
6249;SDS011;3158;52.148;11.568;2022-12-19T18:05:48;17.58;;;7.35;;
6249;SDS011;3158;52.148;11.568;2022-12-19T18:10:50;16.55;;;7.03;;
6249;SDS011;3158;52.148;11.568;2022-12-19T18:15:54;10.98;;;7.03;;
6249;SDS011;3158;52.148;11.568;2022-12-19T18:20:57;12.60;;;9.30;;
6249;SDS011;3158;52.148;11.568;2022-12-19T18:25:58;12.73;;;7.88;;
6249;SDS011;3158;52.148;11.568;2022-12-19T18:31:01;11.45;;;7.55;;
6249;SDS011;3158;52.148;11.568;2022-12-19T18:36:03;13.38;;;8.10;;
6249;SDS011;3158;52.148;11.568;2022-12-19T18:41:07;11.50;;;7.80;;
6249;SDS011;3158;52.148;11.568;2022-12-19T18:46:12;12.35;;;6.95;;
6249;SDS011;3158;52.148;11.568;2022-12-19T18:51:15;17.50;;;8.25;;
6249;SDS011;3158;52.148;11.568;2022-12-19T18:56:17;13.70;;;8.20;;
6249;SDS011;3158;52.148;11.568;2022-12-19T19:01:19;14.45;;;8.38;;
6249;SDS011;3158;52.148;11.568;2022-12-19T19:06:24;15.20;;;8.30;;
6249;SDS011;3158;52.148;11.568;2022-12-19T19:11:26;15.25;;;8.07;;
6249;SDS011;3158;52.148;11.568;2022-12-19T19:16:28;12.98;;;8.20;;
6249;SDS011;3158;52.148;11.568;2022-12-19T19:21:31;12.40;;;7.85;;
6249;SDS011;3158;52.148;11.568;2022-12-19T19:26:33;12.05;;;7.38;;
6249;SDS011;3158;52.148;11.568;2022-12-19T19:31:35;13.45;;;7.63;;
6249;SDS011;3158;52.148;11.568;2022-12-19T19:36:36;13.73;;;8.25;;
6249;SDS011;3158;52.148;11.568;2022-12-19T19:41:39;13.40;;;7.22;;
6249;SDS011;3158;52.148;11.568;2022-12-19T19:46:41;11.68;;;6.78;;
6249;SDS011;3158;52.148;11.568;2022-12-19T19:51:42;11.50;;;7.40;;
6249;SDS011;3158;52.148;11.568;2022-12-19T19:56:43;12.48;;;6.78;;
6249;SDS011;3158;52.148;11.568;2022-12-19T20:01:44;14.00;;;7.60;;
6249;SDS011;3158;52.148;11.568;2022-12-19T20:06:45;13.20;;;7.35;;
6249;SDS011;3158;52.148;11.568;2022-12-19T20:11:46;12.55;;;7.68;;
6249;SDS011;3158;52.148;11.568;2022-12-19T20:16:47;12.23;;;7.57;;
6249;SDS011;3158;52.148;11.568;2022-12-19T20:21:49;13.68;;;7.28;;
6249;SDS011;3158;52.148;11.568;2022-12-19T20:26:50;14.13;;;7.80;;
6249;SDS011;3158;52.148;11.568;2022-12-19T20:31:51;12.55;;;6.97;;
6249;SDS011;3158;52.148;11.568;2022-12-19T20:36:52;13.00;;;7.18;;
6249;SDS011;3158;52.148;11.568;2022-12-19T20:41:53;9.48;;;6.03;;
6249;SDS011;3158;52.148;11.568;2022-12-19T20:46:55;10.35;;;6.90;;
6249;SDS011;3158;52.148;11.568;2022-12-19T20:51:56;12.25;;;6.25;;
6249;SDS011;3158;52.148;11.568;2022-12-19T20:56:58;6.85;;;6.05;;
6249;SDS011;3158;52.148;11.568;2022-12-19T21:01:59;10.75;;;6.50;;
6249;SDS011;3158;52.148;11.568;2022-12-19T21:07:01;8.60;;;5.75;;
6249;SDS011;3158;52.148;11.568;2022-12-19T21:12:02;10.82;;;6.20;;
6249;SDS011;3158;52.148;11.568;2022-12-19T21:17:03;6.40;;;5.75;;
6249;SDS011;3158;52.148;11.568;2022-12-19T21:22:04;7.82;;;5.20;;
6249;SDS011;3158;52.148;11.568;2022-12-19T21:27:05;8.65;;;5.13;;
6249;SDS011;3158;52.148;11.568;2022-12-19T21:32:07;10.90;;;5.85;;
6249;SDS011;3158;52.148;11.568;2022-12-19T21:37:08;7.20;;;5.50;;
6249;SDS011;3158;52.148;11.568;2022-12-19T21:42:09;7.85;;;5.88;;
6249;SDS011;3158;52.148;11.568;2022-12-19T21:47:10;6.95;;;5.53;;
6249;SDS011;3158;52.148;11.568;2022-12-19T21:52:11;8.45;;;5.65;;
6249;SDS011;3158;52.148;11.568;2022-12-19T21:57:12;9.98;;;5.70;;
6249;SDS011;3158;52.148;11.568;2022-12-19T22:02:13;8.45;;;5.88;;
6249;SDS011;3158;52.148;11.568;2022-12-19T22:07:14;7.53;;;6.10;;
6249;SDS011;3158;52.148;11.568;2022-12-19T22:12:15;7.10;;;5.50;;
6249;SDS011;3158;52.148;11.568;2022-12-19T22:17:16;7.22;;;6.13;;
6249;SDS011;3158;52.148;11.568;2022-12-19T22:22:17;5.72;;;4.97;;
6249;SDS011;3158;52.148;11.568;2022-12-19T22:27:19;9.88;;;5.43;;
6249;SDS011;3158;52.148;11.568;2022-12-19T22:32:20;9.77;;;5.50;;
6249;SDS011;3158;52.148;11.568;2022-12-19T22:37:21;9.73;;;5.32;;
6249;SDS011;3158;52.148;11.568;2022-12-19T22:42:22;8.55;;;5.25;;
6249;SDS011;3158;52.148;11.568;2022-12-19T22:47:23;6.50;;;5.18;;
6249;SDS011;3158;52.148;11.568;2022-12-19T22:52:24;7.75;;;4.53;;
6249;SDS011;3158;52.148;11.568;2022-12-19T22:57:25;6.50;;;5.22;;
6249;SDS011;3158;52.148;11.568;2022-12-19T23:02:26;6.75;;;4.57;;
6249;SDS011;3158;52.148;11.568;2022-12-19T23:07:27;7.82;;;5.53;;
6249;SDS011;3158;52.148;11.568;2022-12-19T23:12:28;9.98;;;6.13;;
6249;SDS011;3158;52.148;11.568;2022-12-19T23:17:29;9.25;;;5.80;;
6249;SDS011;3158;52.148;11.568;2022-12-19T23:22:30;8.18;;;4.55;;
6249;SDS011;3158;52.148;11.568;2022-12-19T23:27:32;9.65;;;5.32;;
6249;SDS011;3158;52.148;11.568;2022-12-19T23:32:33;8.05;;;4.93;;
6249;SDS011;3158;52.148;11.568;2022-12-19T23:37:34;6.88;;;5.22;;
6249;SDS011;3158;52.148;11.568;2022-12-19T23:42:35;7.47;;;4.70;;
6249;SDS011;3158;52.148;11.568;2022-12-19T23:47:36;7.40;;;5.75;;
6249;SDS011;3158;52.148;11.568;2022-12-19T23:52:37;5.68;;;4.32;;
6249;SDS011;3158;52.148;11.568;2022-12-19T23:57:38;4.85;;;4.20;;
